Spring Lake, Minnesota
Current Conditions -  °F | °C
As of 4:32 PM on Friday 28 Nov 2014 (Local Time) from KFOZ Reporting Station
Broken Clouds Broken Clouds  
Wind Chill:   Ceiling: 4600
Heat Index: 16°   Visibility: 10mi
Dew Point:   Wind: 8mph
Humidity: 73%   Direction: 110°ESE
Pressure: 29.81"   Gusts: NA
Location:  47.64°N, 93.87°W
Report Text: KFOZ 282232Z AUTO 11007KT 10SM BKN046 M09/M13 A2981 RMK AO2
Loading
Personal Weather Stations






























Interactive Weather Map New forecast layout! Learn more

10-Day Weather Forecast

Advertisements
Track Severe Weather on mobile